Welcome to the New NWS' Forecast!
Most changes are behind the scenes, but click here for differences you might notice.

Terminal Aerodrome Forecast (TAF)

Issued by National Weather Service (NWS)

                            
760 
FTUS42 KKEY 121300 AAA
TAFEYW
TAF AMD
KEYW 121300Z 1213/1312 VRB03KT P6SM VCSH SCT025 SCT100
     FM121800 16004KT P6SM VCTS SCT025CB SCT050 BKN100
     FM122000 17006KT P6SM FEW025 SCT120=